Etusivu
METAR-TAF:

METAR-TAF

Lentoasemat :

Dübendorf, Sveitsi

Leveyspiiri: 47-23-55N, Pituuspiiri: 8-38-53E, korkeus merenpinnasta: 448 m

Tämänhetkinen sää

Tämä raportti tehtiin 15 minuuttia sitten, kello 06.20 UTC
tyyntä
Lämpötila 7°C
Kosteus 100%
Ilmanpaine 1027 hPa
Näkyvyys: 0350 m
Pilvistä 200 ft:n korkeudessa
sumua

METAR: LSMD 210620Z AUTO 00000KT 0350NDV R11/2000U R29/0400N FG OVC002 07/07 Q1027 RMK

Aika: 08:35 (06:35 UTC)


TAF: puuttuu

Säähavainnot ja -ennusteet yli 4000 lentoasemalta (METAR- ja TAF-raportit).

Käytössä olevat sääasemat on merkitty karttaan keltaisilla ja punaisilla pisteillä.

Aseta hiiri pisteen päälle nähdäksesi sääaseman nimen.

Klikkaa sitten nähdäksesi säähavainnot ja -ennusteet.

Kartan vaihtaminen: klikkaa mustalla rastilla varustettuja vihreitä pisteitä, niin voit zoomata sisään; viivalla varustettua vihreää pistettä, niin voit zoomata ulos tai vihreitä nuolia, niin pääset viereisille kartoille.


METAR-TAF: